| time (UTC) | temp F | wind direction | speed MPH | gust MPH | rain 1hr in | rain 24hr in | rain mn in | humidity % | barometer mb |
| 20260903055528 | 76 | 62 | 1.0 | 2.0 | 0.00 | 0.00 | 0.00 | 94 | 1016.9 |
| 20260903054849 | 76 | 45 | 1.0 | 2.0 | 0.00 | 0.00 | 0.00 | 95 | 1016.9 |
| 20260903054635 | 76 | 24 | 1.0 | 2.0 | 0.00 | 0.00 | 0.00 | 95 | 1016.9 |
| 20260903053951 | 76 | 20 | 1.0 | 2.0 | 0.00 | 0.00 | 0.00 | 94 | 1016.9 |
| 20260903053059 | 76 | 46 | 1.0 | 1.0 | 0.00 | 0.00 | 0.00 | 93 | 1016.9 |
| 20260903052208 | 77 | 62 | 1.0 | 2.0 | 0.00 | 0.00 | 0.00 | 92 | 1016.9 |
| 20260903050634 | 77 | 67 | 1.0 | 1.0 | 0.00 | 0.00 | 0.00 | 91 | 1016.9 |
| 20260903045742 | 78 | 4 | 1.0 | 1.0 | 0.00 | 0.00 | 0.00 | 90 | 1016.9 |
| 20260903044848 | 78 | 75 | 0.0 | 2.0 | 0.00 | 0.00 | 0.00 | 89 | 1016.9 |
| 20260903042849 | 77 | 19 | 1.0 | 1.0 | 0.00 | 0.00 | 0.00 | 90 | 1016.9 |
| 20260903041527 | 78 | 35 | 1.0 | 2.0 | 0.00 | 0.00 | 0.00 | 86 | 1016.9 |
| 20260903040635 | 79 | 123 | 1.0 | 1.0 | 0.00 | 0.00 | 0.00 | 86 | 1016.9 |
| 20260903035950 | 78 | 125 | 0.0 | 1.0 | 0.00 | 0.00 | 0.00 | 88 | 1016.9 |
| 20260903035311 | 78 | 36 | 1.0 | 1.0 | 0.00 | 0.00 | 0.00 | 88 | 1016.9 |
| 20260903033739 | 78 | 351 | 1.0 | 1.0 | 0.00 | 0.00 | 0.00 | 86 | 1016.9 |
| 20260903032421 | 79 | 5 | 1.0 | 1.0 | 0.00 | 0.00 | 0.00 | 84 | 1016.9 |
| 20260903031315 | 80 | 100 | 0.0 | 1.0 | 0.00 | 0.00 | 0.00 | 82 | 1016.9 |
| 20260903030417 | 80 | 68 | 0.0 | 1.0 | 0.00 | 0.00 | 0.00 | 81 | 1016.9 |
| 20260903025527 | 80 | 73 | 1.0 | 1.0 | 0.00 | 0.00 | 0.00 | 80 | 1016.9 |
| 20260903025059 | 81 | 291 | 0.0 | 1.0 | 0.00 | 0.00 | 0.00 | 79 | 1016.9 |
| 20260903024419 | 81 | 234 | 0.0 | 2.0 | 0.00 | 0.00 | 0.00 | 79 | 1016.9 |
| 20260903023527 | 81 | 251 | 1.0 | 2.0 | 0.00 | 0.00 | 0.00 | 78 | 1016.9 |
| 20260903023101 | 81 | 272 | 1.0 | 2.0 | 0.00 | 0.00 | 0.00 | 78 | 1016.9 |
| 20260903021737 | 81 | 1 | 1.0 | 2.0 | 0.00 | 0.00 | 0.00 | 76 | 1016.9 |
| 20260903021311 | 82 | 358 | 1.0 | 2.0 | 0.00 | 0.00 | 0.00 | 74 | 1016.9 |
| 20260903020418 | 82 | 5 | 1.0 | 1.0 | 0.00 | 0.00 | 0.00 | 74 | 1016.6 |
| 20260903015739 | 83 | 25 | 0.0 | 1.0 | 0.00 | 0.00 | 0.00 | 72 | 1016.6 |
| 20260903014847 | 83 | 61 | 1.0 | 1.0 | 0.00 | 0.00 | 0.00 | 71 | 1016.6 |
| 20260903013741 | 83 | 353 | 1.0 | 1.0 | 0.00 | 0.00 | 0.00 | 71 | 1016.2 |
| 20260903012847 | 84 | 4 | 1.0 | 2.0 | 0.00 | 0.00 | 0.00 | 72 | 1016.2 |
| 20260903012630 | 85 | 356 | 1.0 | 2.0 | 0.00 | 0.00 | 0.00 | 68 | 1016.2 |
| 20260903011311 | 86 | 128 | 0.0 | 2.0 | 0.00 | 0.00 | 0.00 | 63 | 1016.2 |
| 20260903005527 | 87 | 123 | 0.0 | 1.0 | 0.00 | 0.00 | 0.00 | 61 | 1015.9 |
| 20260903003526 | 88 | 133 | 0.0 | 2.0 | 0.00 | 0.00 | 0.00 | 58 | 1015.9 |
| 20260903003057 | 89 | 53 | 0.0 | 2.0 | 0.00 | 0.00 | 0.00 | 57 | 1016.2 |
| 20260903002206 | 90 | 52 | 1.0 | 2.0 | 0.00 | 0.00 | 0.00 | 54 | 1016.2 |
| 20260903001738 | 91 | 120 | 1.0 | 3.0 | 0.00 | 0.00 | 0.00 | 52 | 1015.9 |
| 20260902235526 | 93 | 120 | 1.0 | 3.0 | 0.00 | 0.00 | 0.00 | 45 | 1015.9 |
| 20260902235309 | 94 | 114 | 2.0 | 5.0 | 0.00 | 0.00 | 0.00 | 44 | 1015.9 |
| 20260902234416 | 94 | 143 | 2.0 | 5.0 | 0.00 | 0.00 | 0.00 | 43 | 1015.9 |
| 20260902233526 | 95 | 115 | 2.0 | 4.0 | 0.00 | 0.00 | 0.00 | 42 | 1015.9 |
| 20260902232846 | 95 | 148 | 2.0 | 5.0 | 0.00 | 0.00 | 0.00 | 42 | 1015.9 |
| 20260902232207 | 95 | 163 | 2.0 | 5.0 | 0.00 | 0.00 | 0.00 | 41 | 1015.9 |
| 20260902231526 | 96 | 115 | 3.0 | 6.0 | 0.00 | 0.00 | 0.00 | 40 | 1015.9 |
| 20260902230206 | 96 | 171 | 2.0 | 6.0 | 0.00 | 0.00 | 0.00 | 40 | 1016.2 |
| 20260902225526 | 97 | 207 | 1.0 | 6.0 | 0.00 | 0.00 | 0.00 | 40 | 1016.2 |
| 20260902223738 | 96 | 169 | 3.0 | 8.0 | 0.00 | 0.00 | 0.00 | 40 | 1016.2 |
| 20260902222846 | 96 | 174 | 4.0 | 8.0 | 0.00 | 0.00 | 0.00 | 39 | 1016.2 |
| 20260902222206 | 96 | 181 | 3.0 | 14.0 | 0.00 | 0.00 | 0.00 | 38 | 1016.2 |
| 20260902221953 | 98 | 135 | 4.0 | 14.0 | 0.00 | 0.00 | 0.00 | 38 | 1016.2 |
| 20260902221313 | 97 | 114 | 3.0 | 11.0 | 0.00 | 0.00 | 0.00 | 39 | 1016.2 |
| 20260902214846 | 97 | 166 | 3.0 | 12.0 | 0.00 | 0.00 | 0.00 | 38 | 1016.2 |
| 20260902214206 | 97 | 165 | 5.0 | 12.0 | 0.00 | 0.00 | 0.00 | 39 | 1016.2 |
| 20260902212846 | 97 | 122 | 5.0 | 12.0 | 0.00 | 0.00 | 0.00 | 39 | 1016.2 |
| 20260902212420 | 98 | 171 | 6.0 | 12.0 | 0.00 | 0.00 | 0.00 | 38 | 1016.2 |
| 20260902211526 | 98 | 160 | 4.0 | 10.0 | 0.00 | 0.00 | 0.00 | 39 | 1016.6 |
| 20260902210206 | 98 | 175 | 2.0 | 10.0 | 0.00 | 0.00 | 0.00 | 38 | 1016.6 |
| 20260902205950 | 99 | 161 | 5.0 | 10.0 | 0.00 | 0.00 | 0.00 | 37 | 1016.6 |
| 20260902204207 | 98 | 246 | 1.0 | 8.0 | 0.00 | 0.00 | 0.00 | 38 | 1016.6 |
| 20260902203526 | 97 | 149 | 4.0 | 9.0 | 0.00 | 0.00 | 0.00 | 38 | 1016.6 |
| 20260902202206 | 99 | 114 | 2.0 | 7.0 | 0.00 | 0.00 | 0.00 | 36 | 1016.9 |
| 20260902201527 | 99 | 107 | 2.0 | 7.0 | 0.00 | 0.00 | 0.00 | 36 | 1016.9 |
| 20260902200846 | 98 | 159 | 3.0 | 13.0 | 0.00 | 0.00 | 0.00 | 37 | 1016.9 |
| 20260902195059 | 97 | 166 | 3.0 | 11.0 | 0.00 | 0.00 | 0.00 | 38 | 1017.3 |
| 20260902194206 | 99 | 136 | 4.0 | 8.0 | 0.00 | 0.00 | 0.00 | 37 | 1017.3 |
| 20260902192846 | 97 | 214 | 2.0 | 6.0 | 0.00 | 0.00 | 0.00 | 39 | 1017.6 |
| 20260902192207 | 97 | 145 | 2.0 | 9.0 | 0.00 | 0.00 | 0.00 | 39 | 1017.6 |
| 20260902191736 | 98 | 136 | 5.0 | 10.0 | 0.00 | 0.00 | 0.00 | 38 | 1017.6 |
| 20260902190207 | 99 | 193 | 2.0 | 7.0 | 0.00 | 0.00 | 0.00 | 38 | 1018.0 |
| 20260902185526 | 100 | 244 | 2.0 | 8.0 | 0.00 | 0.00 | 0.00 | 37 | 1018.0 |
| 20260902184846 | 99 | 153 | 4.0 | 8.0 | 0.00 | 0.00 | 0.00 | 38 | 1018.0 |
| 20260902184633 | 96 | 198 | 3.0 | 12.0 | 0.00 | 0.00 | 0.00 | 41 | 1018.0 |
| 20260902182630 | 98 | 280 | 1.0 | 10.0 | 0.00 | 0.00 | 0.00 | 38 | 1018.3 |
| 20260902181058 | 98 | 166 | 5.0 | 10.0 | 0.00 | 0.00 | 0.00 | 39 | 1018.3 |
| 20260902180207 | 100 | 115 | 2.0 | 6.0 | 0.00 | 0.00 | 0.00 | 36 | 1018.3 |
| 20260902175526 | 98 | 195 | 3.0 | 10.0 | 0.00 | 0.00 | 0.00 | 38 | 1018.7 |
| 20260902174847 | 99 | 132 | 5.0 | 10.0 | 0.00 | 0.00 | 0.00 | 36 | 1018.7 |
| 20260902173736 | 98 | 86 | 2.0 | 11.0 | 0.00 | 0.00 | 0.00 | 37 | 1018.7 |
| 20260902173056 | 97 | 84 | 3.0 | 10.0 | 0.00 | 0.00 | 0.00 | 36 | 1019.0 |
| 20260902171526 | 96 | 146 | 3.0 | 9.0 | 0.00 | 0.00 | 0.00 | 40 | 1019.0 |
| 20260902170419 | 94 | 277 | 3.0 | 10.0 | 0.00 | 0.00 | 0.00 | 46 | 1019.3 |
| 20260902165100 | 96 | 148 | 3.0 | 9.0 | 0.00 | 0.00 | 0.00 | 44 | 1019.3 |
| 20260902164416 | 95 | 156 | 4.0 | 9.0 | 0.00 | 0.00 | 0.00 | 44 | 1019.7 |
| 20260902163737 | 95 | 144 | 3.0 | 9.0 | 0.00 | 0.00 | 0.00 | 45 | 1019.7 |
| 20260902163057 | 96 | 121 | 5.0 | 9.0 | 0.00 | 0.00 | 0.00 | 45 | 1019.7 |
| 20260902162206 | 94 | 186 | 4.0 | 7.0 | 0.00 | 0.00 | 0.00 | 48 | 1019.7 |
| 20260902155954 | 95 | 132 | 1.0 | 6.0 | 0.00 | 0.00 | 0.00 | 48 | 1020.0 |
| 20260902154206 | 92 | 206 | 2.0 | 5.0 | 0.00 | 0.00 | 0.00 | 51 | 1020.0 |
| 20260902153737 | 92 | 324 | 1.0 | 7.0 | 0.00 | 0.00 | 0.00 | 53 | 1020.0 |
| 20260902153311 | 93 | 157 | 4.0 | 7.0 | 0.00 | 0.00 | 0.00 | 51 | 1020.0 |
| 20260902152206 | 92 | 131 | 2.0 | 5.0 | 0.00 | 0.00 | 0.00 | 53 | 1020.0 |
| 20260902151739 | 92 | 118 | 3.0 | 6.0 | 0.00 | 0.00 | 0.00 | 53 | 1020.0 |
| 20260902150206 | 89 | 116 | 2.0 | 6.0 | 0.00 | 0.00 | 0.00 | 58 | 1020.0 |
| 20260902144206 | 90 | 163 | 1.0 | 4.0 | 0.00 | 0.00 | 0.00 | 58 | 1020.0 |
| 20260902142846 | 88 | 115 | 2.0 | 4.0 | 0.00 | 0.00 | 0.00 | 60 | 1020.0 |
| 20260902141948 | 86 | 166 | 3.0 | 5.0 | 0.00 | 0.00 | 0.00 | 64 | 1019.7 |
| 20260902140845 | 87 | 118 | 2.0 | 5.0 | 0.00 | 0.00 | 0.00 | 65 | 1020.0 |
| 20260902140205 | 86 | 357 | 1.0 | 3.0 | 0.00 | 0.00 | 0.00 | 67 | 1020.0 |
| 20260902135057 | 84 | 135 | 1.0 | 4.0 | 0.00 | 0.00 | 0.00 | 73 | 1020.0 |
| 20260902134205 | 83 | 116 | 2.0 | 4.0 | 0.00 | 0.00 | 0.00 | 74 | 1020.0 |
| 20260902132845 | 82 | 3 | 1.0 | 2.0 | 0.00 | 0.00 | 0.00 | 76 | 1019.7 |
| 20260902132415 | 81 | 34 | 1.0 | 3.0 | 0.00 | 0.00 | 0.00 | 76 | 1019.7 |
| 20260902131525 | 80 | 111 | 1.0 | 3.0 | 0.00 | 0.00 | 0.00 | 78 | 1019.7 |
| 20260902131056 | 79 | 36 | 1.0 | 4.0 | 0.00 | 0.00 | 0.00 | 79 | 1019.7 |
| 20260902125525 | 77 | 107 | 1.0 | 4.0 | 0.00 | 0.00 | 0.00 | 81 | 1019.7 |
| 20260902124205 | 76 | 346 | 1.0 | 3.0 | 0.00 | 0.00 | 0.00 | 84 | 1019.7 |
| 20260902123055 | 75 | 33 | 1.0 | 2.0 | 0.00 | 0.00 | 0.00 | 86 | 1019.7 |
| 20260902122629 | 74 | 54 | 1.0 | 2.0 | 0.00 | 0.00 | 0.00 | 86 | 1019.7 |
| 20260902121736 | 74 | 96 | 1.0 | 2.0 | 0.00 | 0.00 | 0.00 | 88 | 1019.7 |
| 20260902120206 | 72 | 59 | 0.0 | 2.0 | 0.00 | 0.00 | 0.00 | 93 | 1019.7 |
| 20260902115525 | 71 | 68 | 1.0 | 2.0 | 0.00 | 0.00 | 0.00 | 96 | 1019.3 |
| 20260902114205 | 70 | 54 | 1.0 | 1.0 | 0.00 | 0.00 | 0.00 | 97 | 1019.0 |
| 20260902113735 | 70 | 272 | 0.0 | 2.0 | 0.00 | 0.00 | 0.00 | 98 | 1019.0 |
| 20260902112845 | 70 | 11 | 1.0 | 2.0 | 0.00 | 0.00 | 0.00 | 98 | 1019.0 |
| 20260902112205 | 70 | 5 | 1.0 | 2.0 | 0.00 | 0.00 | 0.00 | 97 | 1019.0 |
| 20260902111526 | 70 | 3 | 1.0 | 2.0 | 0.00 | 0.00 | 0.00 | 97 | 1019.0 |
| 20260902110205 | 71 | 56 | 1.0 | 2.0 | 0.00 | 0.00 | 0.00 | 96 | 1018.7 |
| 20260902105525 | 71 | 129 | 0.0 | 2.0 | 0.00 | 0.00 | 0.00 | 96 | 1018.7 |
| 20260902104845 | 71 | 54 | 1.0 | 2.0 | 0.00 | 0.00 | 0.00 | 96 | 1018.7 |
| 20260902104415 | 71 | 78 | 1.0 | 2.0 | 0.00 | 0.00 | 0.00 | 96 | 1018.7 |
| 20260902103736 | 71 | 122 | 0.0 | 1.0 | 0.00 | 0.00 | 0.00 | 95 | 1018.3 |
| 20260902102630 | 71 | 139 | 0.0 | 2.0 | 0.00 | 0.00 | 0.00 | 94 | 1018.3 |
| 20260902100845 | 71 | 275 | 1.0 | 2.0 | 0.00 | 0.00 | 0.00 | 95 | 1018.3 |
| 20260902100419 | 71 | 286 | 1.0 | 1.0 | 0.00 | 0.00 | 0.00 | 95 | 1018.3 |
| 20260902095735 | 71 | 229 | 1.0 | 1.0 | 0.00 | 0.00 | 0.00 | 96 | 1018.3 |
| 20260902094844 | 71 | 282 | 1.0 | 1.0 | 0.00 | 0.00 | 0.00 | 96 | 1018.0 |
| 20260902094416 | 71 | 38 | 0.0 | 1.0 | 0.00 | 0.00 | 0.00 | 96 | 1018.3 |
| 20260902092631 | 72 | 59 | 1.0 | 1.0 | 0.00 | 0.00 | 0.00 | 96 | 1018.0 |
| 20260902091525 | 71 | 43 | 1.0 | 1.0 | 0.00 | 0.00 | 0.00 | 96 | 1018.0 |
| 20260902091307 | 71 | 357 | 1.0 | 1.0 | 0.00 | 0.00 | 0.00 | 96 | 1018.0 |
| 20260902090415 | 72 | 352 | 1.0 | 1.0 | 0.00 | 0.00 | 0.00 | 96 | 1018.0 |
| 20260902085524 | 72 | 4 | 1.0 | 2.0 | 0.00 | 0.00 | 0.00 | 96 | 1018.0 |
| 20260902085056 | 72 | 354 | 1.0 | 2.0 | 0.00 | 0.00 | 0.00 | 96 | 1018.0 |
| 20260902084630 | 72 | 6 | 1.0 | 1.0 | 0.00 | 0.00 | 0.00 | 97 | 1018.0 |
| 20260902083058 | 72 | 28 | 1.0 | 2.0 | 0.00 | 0.00 | 0.00 | 95 | 1018.0 |
| 20260902082626 | 72 | 75 | 1.0 | 2.0 | 0.00 | 0.00 | 0.00 | 96 | 1018.0 |
| 20260902081525 | 72 | 3 | 1.0 | 1.0 | 0.00 | 0.00 | 0.00 | 95 | 1018.0 |
| 20260902080845 | 72 | 66 | 1.0 | 1.0 | 0.00 | 0.00 | 0.00 | 95 | 1018.0 |
| 20260902080415 | 73 | 9 | 1.0 | 2.0 | 0.00 | 0.00 | 0.00 | 94 | 1018.0 |
| 20260902075736 | 73 | 153 | 1.0 | 2.0 | 0.00 | 0.00 | 0.00 | 93 | 1018.0 |
| 20260902074846 | 73 | 77 | 1.0 | 2.0 | 0.00 | 0.00 | 0.00 | 92 | 1017.6 |
| 20260902074417 | 73 | 138 | 1.0 | 2.0 | 0.00 | 0.00 | 0.00 | 93 | 1018.0 |
| 20260902072627 | 73 | 352 | 1.0 | 2.0 | 0.00 | 0.00 | 0.00 | 94 | 1018.0 |
| 20260902071735 | 73 | 356 | 1.0 | 1.0 | 0.00 | 0.00 | 0.00 | 94 | 1018.0 |
| 20260902071056 | 74 | 23 | 1.0 | 2.0 | 0.00 | 0.00 | 0.00 | 92 | 1017.6 |
| 20260902070416 | 74 | 128 | 1.0 | 2.0 | 0.00 | 0.00 | 0.00 | 93 | 1018.0 |
| 20260902065737 | 73 | 28 | 0.0 | 1.0 | 0.00 | 0.00 | 0.00 | 94 | 1018.0 |
| 20260902064206 | 74 | 81 | 0.0 | 1.0 | 0.00 | 0.00 | 0.00 | 93 | 1018.0 |
| 20260902063739 | 74 | 56 | 0.0 | 2.0 | 0.00 | 0.00 | 0.00 | 94 | 1018.0 |
| 20260902063313 | 74 | 64 | 1.0 | 2.0 | 0.00 | 0.00 | 0.00 | 94 | 1018.0 |
| 20260902062415 | 73 | 355 | 1.0 | 2.0 | 0.00 | 0.00 | 0.00 | 94 | 1018.0 |
| 20260902061525 | 74 | 23 | 1.0 | 2.0 | 0.00 | 0.00 | 0.00 | 93 | 1018.0 |
| 20260902060846 | 74 | 355 | 1.0 | 2.0 | 0.00 | 0.00 | 0.00 | 96 | 1018.0 |